Sonangol Maiombe — C6DC7 — position and weather

sailwx.info

Track history (hours):
 
Tides and Currents Weather Stations Pressure Air Temp Water Temp Dewpoint Dewpoint Depression Visibility Wind Speed Wind Dir Waves Ship Positions

Sonangol Maiombe

Last reported at 2018-May-28 06:03 UTC. Time now 2018-Jun-24 12:51 UTC.
Position S 07°38' E 011°49'.
Warning: this ship's position is 27 days out of date.

Length 274 m; draft 9.5 m.

Type: Tanker. MMSI: 311000639.

Date/timePositionNaut miles runAvg speedWind from/ knotsBaromVisibWave heightAir tempDewpointWater temp
2018-May-28 06:03S 07°38' E 011°49'1 4.3
2018-May-28 05:56S 07°38' E 011°50'2 0.8
2018-May-28 03:40S 07°37' E 011°51'1 0.9
2018-May-28 02:48S 07°37' E 011°50'2 0.8
2018-May-28 00:14S 07°37' E 011°48'0 0.7
2018-May-27 23:55S 07°38' E 011°48'0 0.8
2018-May-27 23:29S 07°38' E 011°48'0 0.8
2018-May-27 22:55S 07°38' E 011°47'0 0.7
2018-May-27 22:23S 07°38' E 011°47'0 0.7
2018-May-27 21:56S 07°38' E 011°47'0 0.8
2018-May-27 21:29S 07°38' E 011°46'3 2.1
2018-May-27 20:04S 07°35' E 011°48'4 0.9
2018-May-27 15:29S 07°38' E 011°45'6 0.7
2018-May-27 06:57S 07°37' E 011°51'2 0.2
2018-May-26 23:53S 07°37' E 011°49'0 0.3
2018-May-26 23:10S 07°38' E 011°49'0 0.2
2018-May-26 22:55S 07°38' E 011°49'0 0.2
2018-May-26 22:21S 07°38' E 011°49'0 0.3
2018-May-26 21:58S 07°38' E 011°49'0 0.3
2018-May-26 21:29S 07°38' E 011°49'0 0.3
2018-May-26 20:58S 07°38' E 011°49'0 0.2
2018-May-26 20:26S 07°38' E 011°49'0 0.3
2018-May-26 20:00S 07°38' E 011°49'1 0.1
2018-May-26 16:03S 07°38' E 011°48'5 1.3
2018-May-26 12:11S 07°34' E 011°45'0 0.9
2018-May-26 12:00S 07°34' E 011°45'1 1.5
2018-May-26 11:30S 07°35' E 011°46'2 3.3
2018-May-26 11:00S 07°35' E 011°48'3 7.2
2018-May-26 10:30S 07°36' E 011°51'3 6.1
2018-May-26 10:00S 07°38' E 011°53'3 6.5
2018-May-26 09:30S 07°42' E 011°53'4 7.4
2018-May-26 09:00S 07°45' E 011°53'4 7.4
2018-May-26 08:29S 07°49' E 011°53'3611.9
2018-May-26 05:29S 08°25' E 011°48'713.3
2018-May-26 04:59S 08°31' E 011°47'713.3
2018-May-26 04:30S 08°38' E 011°46'1013.2
2018-May-26 03:45S 08°48' E 011°44'  
Track history (hours):
 
Tides and Currents Weather Stations Pressure Air Temp Water Temp Dewpoint Dewpoint Depression Visibility Wind Speed Wind Dir Waves Ship Positions

Sonangol Maiombe

Last reported at 2018-May-28 06:03 UTC. Time now 2018-Jun-24 12:51 UTC.
Position S 07°38' E 011°49'.
Warning: this ship's position is 27 days out of date.

Length 274 m; draft 9.5 m.

Type: Tanker. MMSI: 311000639.

Date/timePositionNaut miles runAvg speedWind from/ knotsBaromVisibWave heightAir tempDewpointWater temp
2018-May-28 06:03S 07°38' E 011°49'1 4.3
2018-May-28 05:56S 07°38' E 011°50'2 0.8
2018-May-28 03:40S 07°37' E 011°51'1 0.9
2018-May-28 02:48S 07°37' E 011°50'2 0.8
2018-May-28 00:14S 07°37' E 011°48'0 0.7
2018-May-27 23:55S 07°38' E 011°48'0 0.8
2018-May-27 23:29S 07°38' E 011°48'0 0.8
2018-May-27 22:55S 07°38' E 011°47'0 0.7
2018-May-27 22:23S 07°38' E 011°47'0 0.7
2018-May-27 21:56S 07°38' E 011°47'0 0.8
2018-May-27 21:29S 07°38' E 011°46'3 2.1
2018-May-27 20:04S 07°35' E 011°48'4 0.9
2018-May-27 15:29S 07°38' E 011°45'6 0.7
2018-May-27 06:57S 07°37' E 011°51'2 0.2
2018-May-26 23:53S 07°37' E 011°49'0 0.3
2018-May-26 23:10S 07°38' E 011°49'0 0.2
2018-May-26 22:55S 07°38' E 011°49'0 0.2
2018-May-26 22:21S 07°38' E 011°49'0 0.3
2018-May-26 21:58S 07°38' E 011°49'0 0.3
2018-May-26 21:29S 07°38' E 011°49'0 0.3
2018-May-26 20:58S 07°38' E 011°49'0 0.2
2018-May-26 20:26S 07°38' E 011°49'0 0.3
2018-May-26 20:00S 07°38' E 011°49'1 0.1
2018-May-26 16:03S 07°38' E 011°48'5 1.3
2018-May-26 12:11S 07°34' E 011°45'0 0.9
2018-May-26 12:00S 07°34' E 011°45'1 1.5
2018-May-26 11:30S 07°35' E 011°46'2 3.3
2018-May-26 11:00S 07°35' E 011°48'3 7.2
2018-May-26 10:30S 07°36' E 011°51'3 6.1
2018-May-26 10:00S 07°38' E 011°53'3 6.5
2018-May-26 09:30S 07°42' E 011°53'4 7.4
2018-May-26 09:00S 07°45' E 011°53'4 7.4
2018-May-26 08:29S 07°49' E 011°53'3611.9
2018-May-26 05:29S 08°25' E 011°48'713.3
2018-May-26 04:59S 08°31' E 011°47'713.3
2018-May-26 04:30S 08°38' E 011°46'1013.2
2018-May-26 03:45S 08°48' E 011°44'  

Dump ship's entire track history